createdAt,value
2023-05-25T00:00:19.321Z,34.50
2023-05-25T00:02:49.204Z,34.60
2023-05-25T00:05:18.427Z,34.60
2023-05-25T00:07:45.556Z,34.90
2023-05-25T00:10:13.758Z,34.80
2023-05-25T00:12:40.934Z,34.70
2023-05-25T00:15:08.468Z,34.60
2023-05-25T00:17:37.403Z,34.80
2023-05-25T00:20:08.231Z,34.70
2023-05-25T00:22:38.808Z,34.70
2023-05-25T00:25:06.990Z,34.80
2023-05-25T00:27:33.979Z,35.30
2023-05-25T00:30:01.167Z,35.50
2023-05-25T00:32:28.243Z,36.00
2023-05-25T00:34:55.907Z,36.10
2023-05-25T00:37:23.053Z,36.30
2023-05-25T00:39:50.124Z,36.50
2023-05-25T00:42:17.478Z,36.60
2023-05-25T00:44:44.752Z,36.70
2023-05-25T00:47:11.996Z,36.80
2023-05-25T00:49:39.082Z,36.80
2023-05-25T00:52:06.533Z,36.80
2023-05-25T00:54:35.302Z,36.80
2023-05-25T00:57:07.400Z,36.70
2023-05-25T00:59:48.916Z,36.60
2023-05-25T01:02:18.092Z,36.50
2023-05-25T01:04:52.630Z,36.30
2023-05-25T01:07:23.453Z,36.20
2023-05-25T01:09:58.240Z,36.30
2023-05-25T01:12:29.041Z,36.20
2023-05-25T01:14:57.022Z,35.90
2023-05-25T01:17:24.350Z,35.80
2023-05-25T01:20:09.099Z,35.90
2023-05-25T01:22:47.979Z,36.10
2023-05-25T01:25:25.412Z,36.10
2023-05-25T01:27:57.979Z,35.80
2023-05-25T01:30:26.657Z,35.90
2023-05-25T01:32:55.051Z,36.00
2023-05-25T01:35:24.726Z,36.00
2023-05-25T01:37:52.623Z,36.10
2023-05-25T01:40:19.594Z,36.10
2023-05-25T01:42:46.661Z,36.10
2023-05-25T01:45:15.101Z,36.10
2023-05-25T01:47:57.267Z,36.10
2023-05-25T01:50:47.673Z,36.10
2023-05-25T01:53:44.870Z,36.20
2023-05-25T01:56:14.050Z,36.20
2023-05-25T01:58:44.567Z,36.00
2023-05-25T02:01:15.321Z,36.00
2023-05-25T02:03:43.258Z,36.00
2023-05-25T02:06:10.416Z,35.90
2023-05-25T02:08:37.525Z,35.90
2023-05-25T02:11:04.632Z,35.70
2023-05-25T02:13:31.676Z,35.70
2023-05-25T02:15:58.821Z,35.10
2023-05-25T02:18:26.541Z,34.50
2023-05-25T02:20:53.691Z,34.20
2023-05-25T02:23:20.885Z,34.30
2023-05-25T02:25:47.898Z,34.40
2023-05-25T02:28:15.772Z,34.40
2023-05-25T02:30:42.960Z,34.10
2023-05-25T02:33:09.964Z,34.10
2023-05-25T02:35:37.101Z,34.10
2023-05-25T02:38:04.228Z,34.10
2023-05-25T02:40:31.313Z,33.90
2023-05-25T02:42:58.326Z,34.00
2023-05-25T02:45:25.327Z,33.90
2023-05-25T02:47:52.399Z,33.90
2023-05-25T02:50:19.583Z,33.60
2023-05-25T02:52:51.840Z,33.50
2023-05-25T02:55:19.018Z,33.20
2023-05-25T02:57:46.106Z,33.50
2023-05-25T03:29:18.907Z,35.10
2023-05-25T03:31:46.160Z,35.00
2023-05-25T03:34:13.252Z,35.00
2023-05-25T03:36:40.308Z,34.90
2023-05-25T03:39:07.509Z,34.50
2023-05-25T03:41:34.529Z,34.20
2023-05-25T03:44:01.626Z,34.20
2023-05-25T03:46:28.755Z,34.00
2023-05-25T03:48:55.873Z,33.80
2023-05-25T03:51:23.028Z,33.90
2023-05-25T03:53:50.152Z,33.60
2023-05-25T03:56:17.263Z,33.20
2023-05-25T03:58:44.414Z,33.30
2023-05-25T04:01:12.662Z,33.50
2023-05-25T04:03:40.019Z,34.10
2023-05-25T04:06:07.226Z,34.10
2023-05-25T04:08:34.591Z,34.20
2023-05-25T04:11:02.286Z,34.00
2023-05-25T04:13:29.488Z,33.20
2023-05-25T04:15:56.990Z,32.80
2023-05-25T04:18:24.060Z,32.60
2023-05-25T04:20:51.413Z,32.20
2023-05-25T04:23:19.778Z,32.30
2023-05-25T04:25:51.440Z,33.10
2023-05-25T04:28:19.015Z,33.90
2023-05-25T04:30:46.000Z,34.70
2023-05-25T04:33:13.100Z,34.90
2023-05-25T04:35:43.046Z,35.10
2023-05-25T04:38:12.561Z,34.70
2023-05-25T04:40:41.913Z,35.00
2023-05-25T04:43:10.065Z,35.20
2023-05-25T04:45:37.228Z,35.30
2023-05-25T04:48:04.555Z,35.80
2023-05-25T04:50:32.192Z,35.90
2023-05-25T04:52:59.239Z,35.80
2023-05-25T04:55:26.224Z,36.00
2023-05-25T04:57:54.943Z,36.00
2023-05-25T05:00:22.291Z,36.40
2023-05-25T05:02:50.142Z,36.60
2023-05-25T05:05:17.673Z,36.80
2023-05-25T05:07:44.857Z,36.80
2023-05-25T05:10:11.967Z,37.10
2023-05-25T05:12:39.078Z,37.10
2023-05-25T05:15:06.567Z,37.10
2023-05-25T05:17:34.248Z,36.50
2023-05-25T05:20:01.336Z,36.40
2023-05-25T05:28:10.823Z,37.20
2023-05-25T05:30:37.843Z,37.20
2023-05-25T05:33:04.955Z,36.90
2023-05-25T05:35:32.439Z,36.20
2023-05-25T05:37:59.464Z,35.60
2023-05-25T05:40:27.009Z,35.90
2023-05-25T05:42:54.084Z,36.50
2023-05-25T05:45:21.546Z,36.30
2023-05-25T05:47:48.573Z,35.60
2023-05-25T05:50:15.695Z,35.30
2023-05-25T05:52:42.685Z,34.60
2023-05-25T05:55:09.924Z,34.40
2023-05-25T05:57:37.071Z,34.80
2023-05-25T06:00:07.140Z,34.60
2023-05-25T06:02:34.228Z,35.20
2023-05-25T06:05:01.728Z,35.40
2023-05-25T06:07:31.086Z,35.30
2023-05-25T06:09:58.036Z,35.90
2023-05-25T06:12:25.088Z,36.80
2023-05-25T06:14:52.294Z,36.50
2023-05-25T06:17:19.503Z,36.50
2023-05-25T06:19:46.515Z,36.10
2023-05-25T06:22:13.619Z,36.50
2023-05-25T06:24:40.644Z,36.80
2023-05-25T06:27:07.745Z,37.20
2023-05-25T06:29:35.195Z,36.90
2023-05-25T06:32:02.385Z,37.20
2023-05-25T06:34:29.422Z,37.80
2023-05-25T06:36:56.881Z,38.00
2023-05-25T06:39:24.003Z,37.80
2023-05-25T06:41:51.483Z,37.90
2023-05-25T06:44:19.072Z,38.10
2023-05-25T06:46:46.420Z,38.70
2023-05-25T06:49:13.501Z,39.50
2023-05-25T06:51:40.523Z,39.80
2023-05-25T06:54:08.812Z,40.00
2023-05-25T06:56:36.001Z,39.50
2023-05-25T06:59:03.018Z,39.00
2023-05-25T07:01:30.171Z,39.30
2023-05-25T07:03:57.259Z,39.00
2023-05-25T07:06:24.511Z,39.50
2023-05-25T07:08:51.470Z,40.60
2023-05-25T07:11:22.100Z,40.90
2023-05-25T07:13:49.230Z,40.50
2023-05-25T07:16:16.714Z,40.40
2023-05-25T07:18:43.854Z,40.80
2023-05-25T07:21:11.638Z,42.00
2023-05-25T07:23:41.065Z,42.50
2023-05-25T07:26:08.724Z,42.90
2023-05-25T07:28:35.914Z,41.90
2023-05-25T07:31:03.002Z,42.40
2023-05-25T07:33:30.010Z,42.70
2023-05-25T07:35:57.067Z,43.10
2023-05-25T07:38:24.073Z,43.70
2023-05-25T07:40:52.660Z,43.90
2023-05-25T07:43:19.787Z,43.50
2023-05-25T07:45:47.005Z,43.70
2023-05-25T07:48:14.072Z,44.20
2023-05-25T07:50:41.674Z,44.70
2023-05-25T07:53:08.765Z,44.10
2023-05-25T07:55:35.786Z,44.10
2023-05-25T07:58:02.855Z,44.10
2023-05-25T08:00:30.051Z,44.40
2023-05-25T08:02:57.286Z,44.10
2023-05-25T08:05:27.178Z,43.70
2023-05-25T08:07:56.358Z,43.70
2023-05-25T08:10:23.766Z,44.80
2023-05-25T08:12:52.564Z,45.10
2023-05-25T08:15:19.894Z,45.70
2023-05-25T08:17:48.153Z,44.60
2023-05-25T08:20:15.359Z,44.50
2023-05-25T08:22:43.508Z,44.90
2023-05-25T08:25:11.328Z,44.70
2023-05-25T08:27:38.480Z,44.30
2023-05-25T08:30:06.266Z,44.70
2023-05-25T08:32:33.446Z,44.10
2023-05-25T08:35:02.258Z,44.50
2023-05-25T08:37:30.727Z,45.00
2023-05-25T08:40:00.965Z,45.40
2023-05-25T08:42:30.843Z,44.70
2023-05-25T08:44:59.037Z,44.70
2023-05-25T08:47:32.760Z,44.60
2023-05-25T08:50:01.739Z,43.40
2023-05-25T08:52:35.182Z,43.40
2023-05-25T08:55:06.453Z,44.30
2023-05-25T08:58:02.960Z,44.30
2023-05-25T09:00:34.889Z,43.70
2023-05-25T09:03:14.183Z,44.10
2023-05-25T09:05:41.356Z,43.60
2023-05-25T09:08:14.253Z,43.90
2023-05-25T09:10:42.414Z,44.60
2023-05-25T09:13:21.369Z,44.50
2023-05-25T09:15:50.236Z,44.00
2023-05-25T09:18:17.499Z,44.90
2023-05-25T09:20:47.034Z,45.20
2023-05-25T09:23:16.314Z,45.60
2023-05-25T09:25:45.023Z,45.30
2023-05-25T09:30:42.260Z,44.80
2023-05-25T09:33:11.463Z,44.50
2023-05-25T09:35:39.222Z,44.50
2023-05-25T09:38:07.803Z,44.50
2023-05-25T09:40:36.073Z,44.20
2023-05-25T09:43:04.300Z,43.80
2023-05-25T09:45:32.279Z,43.00
2023-05-25T09:48:00.216Z,42.10
2023-05-25T09:50:30.900Z,41.30
2023-05-25T09:53:01.315Z,40.30
2023-05-25T09:55:40.331Z,40.10
2023-05-25T09:58:18.681Z,40.20
2023-05-25T10:00:46.526Z,40.70
2023-05-25T10:03:15.606Z,40.70
2023-05-25T10:05:42.839Z,41.00
2023-05-25T10:08:11.770Z,41.80
2023-05-25T10:10:40.700Z,41.70
2023-05-25T10:13:09.700Z,41.60
2023-05-25T10:15:40.298Z,41.20
2023-05-25T10:18:09.521Z,40.40
2023-05-25T10:20:37.229Z,40.40
2023-05-25T10:23:11.650Z,40.70
2023-05-25T10:25:46.951Z,40.50
2023-05-25T10:28:28.352Z,40.80
2023-05-25T10:30:57.212Z,41.10
2023-05-25T10:33:24.765Z,42.00
2023-05-25T10:38:26.851Z,41.20
2023-05-25T10:40:56.160Z,41.10
2023-05-25T10:43:24.061Z,40.70
2023-05-25T10:45:51.032Z,40.20
2023-05-25T10:48:18.214Z,39.30
2023-05-25T10:50:50.931Z,39.70
2023-05-25T10:53:23.722Z,40.00
2023-05-25T10:55:53.554Z,39.70
2023-05-25T10:58:22.629Z,39.60
2023-05-25T11:01:03.000Z,39.60
2023-05-25T11:03:48.312Z,40.30
2023-05-25T11:06:17.200Z,40.20
2023-05-25T11:08:56.888Z,39.70
2023-05-25T11:11:43.882Z,39.60
2023-05-25T11:14:31.788Z,40.10
2023-05-25T11:17:14.507Z,39.50
2023-05-25T11:19:51.778Z,39.20
2023-05-25T11:22:21.375Z,39.30
2023-05-25T11:24:53.061Z,38.50
2023-05-25T11:27:29.039Z,38.20
2023-05-25T11:29:57.994Z,38.90
2023-05-25T11:32:26.603Z,38.90
2023-05-25T11:34:55.207Z,39.00
2023-05-25T11:37:25.026Z,39.60
2023-05-25T11:39:53.387Z,40.00
2023-05-25T11:42:22.306Z,40.60
2023-05-25T11:44:49.584Z,40.90
2023-05-25T11:47:22.929Z,40.80
2023-05-25T11:49:50.744Z,40.90
2023-05-25T11:52:19.950Z,40.90
2023-05-25T11:54:47.551Z,40.40
2023-05-25T11:57:24.825Z,40.30
2023-05-25T11:59:54.436Z,40.20
2023-05-25T12:02:22.322Z,40.40
2023-05-25T12:05:00.265Z,40.60
2023-05-25T12:07:28.864Z,40.90
2023-05-25T12:10:09.814Z,41.30
2023-05-25T12:12:48.394Z,40.70
2023-05-25T12:15:23.550Z,40.10
2023-05-25T12:17:52.372Z,41.30
2023-05-25T12:20:20.565Z,41.80
2023-05-25T12:22:48.077Z,42.10
2023-05-25T12:25:18.829Z,42.90
2023-05-25T12:27:45.934Z,43.40
2023-05-25T12:30:13.195Z,44.00
2023-05-25T12:33:02.872Z,43.20
2023-05-25T12:35:48.012Z,42.70
2023-05-25T12:38:20.115Z,42.60
2023-05-25T12:40:47.759Z,43.20
2023-05-25T12:43:17.011Z,43.30
2023-05-25T12:45:44.454Z,43.90
2023-05-25T12:48:12.028Z,44.30
2023-05-25T12:50:39.349Z,44.60
2023-05-25T12:53:06.470Z,44.30
2023-05-25T12:55:35.828Z,43.50
2023-05-25T12:58:07.504Z,43.30
2023-05-25T13:00:39.383Z,43.20
2023-05-25T13:03:08.036Z,42.90
2023-05-25T13:05:37.513Z,42.90
2023-05-25T13:08:05.652Z,42.40
2023-05-25T13:10:33.712Z,42.60
2023-05-25T13:13:01.329Z,43.10
2023-05-25T13:15:28.968Z,42.60
2023-05-25T13:17:58.613Z,42.40
2023-05-25T13:20:27.716Z,42.70
2023-05-25T13:22:58.222Z,42.20
2023-05-25T13:25:28.157Z,42.10
2023-05-25T13:27:58.070Z,42.10
2023-05-25T13:30:26.497Z,42.00
2023-05-25T13:32:53.752Z,42.40
2023-05-25T13:35:37.930Z,42.40
2023-05-25T13:38:05.346Z,42.60
2023-05-25T13:40:32.381Z,42.90
2023-05-25T13:42:59.455Z,43.20
2023-05-25T13:45:28.041Z,43.80
2023-05-25T13:47:55.205Z,44.00
2023-05-25T13:50:22.480Z,43.10
2023-05-25T13:52:49.584Z,42.90
2023-05-25T13:55:16.746Z,43.30
2023-05-25T13:57:43.777Z,44.20
2023-05-25T14:00:11.373Z,43.90
2023-05-25T14:02:38.611Z,42.80
2023-05-25T14:05:06.317Z,42.90
2023-05-25T14:07:33.473Z,43.10
2023-05-25T14:10:00.692Z,42.30
2023-05-25T14:12:27.958Z,42.10
2023-05-25T14:14:55.247Z,40.60
2023-05-25T14:17:22.359Z,40.20
2023-05-25T14:19:49.362Z,40.40
2023-05-25T14:22:16.468Z,39.90
2023-05-25T14:24:43.704Z,40.50
2023-05-25T14:27:10.997Z,40.30
2023-05-25T14:29:38.199Z,40.00
2023-05-25T14:32:05.591Z,40.40
2023-05-25T14:34:32.597Z,40.10
2023-05-25T14:36:59.736Z,40.80
2023-05-25T14:39:26.952Z,41.10
2023-05-25T14:41:53.980Z,40.40
2023-05-25T14:44:21.069Z,40.70
2023-05-25T14:46:48.169Z,41.40
2023-05-25T14:49:16.918Z,40.90
2023-05-25T14:51:43.995Z,41.20
2023-05-25T14:54:13.752Z,40.00
2023-05-25T14:56:40.876Z,39.60
2023-05-25T14:59:08.147Z,39.20
2023-05-25T15:01:36.082Z,38.60
2023-05-25T15:04:04.030Z,38.90
2023-05-25T15:06:32.348Z,39.00
2023-05-25T15:08:59.402Z,39.80
2023-05-25T15:11:26.975Z,39.30
2023-05-25T15:13:54.189Z,39.80
2023-05-25T15:16:21.392Z,40.20
2023-05-25T15:18:48.594Z,39.60
2023-05-25T15:21:15.705Z,39.60
2023-05-25T15:23:42.751Z,39.70
2023-05-25T15:26:11.737Z,39.10
2023-05-25T15:28:38.901Z,38.60
2023-05-25T15:31:05.889Z,39.00
2023-05-25T15:33:48.333Z,38.40
2023-05-25T15:36:17.042Z,38.50
2023-05-25T15:38:44.642Z,39.00
2023-05-25T15:41:16.063Z,38.80
2023-05-25T15:43:50.118Z,38.40
2023-05-25T15:46:17.258Z,38.70
2023-05-25T15:48:44.344Z,38.90
2023-05-25T15:51:11.517Z,38.80
2023-05-25T15:53:38.612Z,38.60
2023-05-25T15:56:05.747Z,38.00
2023-05-25T15:58:34.686Z,38.20
2023-05-25T16:01:02.758Z,38.20
2023-05-25T16:03:29.974Z,38.10
2023-05-25T16:05:57.472Z,37.20
2023-05-25T16:08:24.613Z,37.40
2023-05-25T16:10:51.665Z,37.50
2023-05-25T16:13:18.782Z,38.00
2023-05-25T16:15:46.679Z,38.40
2023-05-25T16:18:14.065Z,38.30
2023-05-25T16:20:41.497Z,36.90
2023-05-25T16:23:08.667Z,37.30
2023-05-25T16:25:35.780Z,37.90
2023-05-25T16:28:02.877Z,38.00
2023-05-25T16:30:29.996Z,38.00
2023-05-25T16:32:57.088Z,38.20
2023-05-25T16:35:24.239Z,37.10
2023-05-25T16:37:51.351Z,37.60
2023-05-25T16:40:18.404Z,38.00
2023-05-25T16:42:45.544Z,37.80
2023-05-25T16:45:12.854Z,37.20
2023-05-25T16:47:39.933Z,37.40
2023-05-25T16:50:08.200Z,37.30
2023-05-25T16:52:35.827Z,37.60
2023-05-25T16:55:02.958Z,37.50
2023-05-25T16:57:30.065Z,36.70
2023-05-25T16:59:57.056Z,37.10
2023-05-25T17:02:24.263Z,37.10
2023-05-25T17:04:51.367Z,37.20
2023-05-25T17:07:18.480Z,37.40
2023-05-25T17:09:45.604Z,37.80
2023-05-25T17:12:12.904Z,36.50
2023-05-25T17:14:40.319Z,36.70
2023-05-25T17:17:07.398Z,36.50
2023-05-25T17:19:34.830Z,37.10
2023-05-25T17:22:01.918Z,37.00
2023-05-25T17:24:28.876Z,36.30
2023-05-25T17:26:55.950Z,36.70
2023-05-25T17:29:23.034Z,36.70
2023-05-25T17:31:50.256Z,35.80
2023-05-25T17:34:17.594Z,35.70
2023-05-25T17:36:44.712Z,36.20
2023-05-25T17:39:11.727Z,36.50
2023-05-25T17:41:39.025Z,36.80
2023-05-25T17:44:06.182Z,36.80
2023-05-25T17:46:33.391Z,36.90
2023-05-25T17:49:00.527Z,37.20
2023-05-25T17:51:27.677Z,37.50
2023-05-25T17:53:54.748Z,37.70
2023-05-25T17:56:22.336Z,37.60
2023-05-25T17:58:49.528Z,36.40
2023-05-25T18:01:16.898Z,36.60
2023-05-25T18:03:44.205Z,36.80
2023-05-25T18:06:11.473Z,37.00
2023-05-25T18:08:38.522Z,37.00
2023-05-25T18:11:05.825Z,36.90
2023-05-25T18:13:33.016Z,37.30
2023-05-25T18:16:00.701Z,37.60
2023-05-25T18:18:30.797Z,37.50
2023-05-25T18:20:57.978Z,37.50
2023-05-25T18:23:25.078Z,37.50
2023-05-25T18:25:52.766Z,37.40
2023-05-25T18:28:19.834Z,38.00
2023-05-25T18:30:47.000Z,38.00
2023-05-25T18:33:14.148Z,38.00
2023-05-25T18:35:41.273Z,37.80
2023-05-25T18:38:08.276Z,37.90
2023-05-25T18:40:35.415Z,37.70
2023-05-25T18:43:02.489Z,37.60
2023-05-25T18:45:30.735Z,37.60
2023-05-25T18:47:58.066Z,37.70
2023-05-25T18:50:25.184Z,37.50
2023-05-25T18:52:52.374Z,36.50
2023-05-25T18:55:19.518Z,37.00
2023-05-25T18:57:47.053Z,37.20
2023-05-25T19:00:14.927Z,37.30
2023-05-25T19:02:42.735Z,37.10
2023-05-25T19:05:12.993Z,36.90
2023-05-25T19:07:50.938Z,37.00
2023-05-25T19:10:25.488Z,36.80
2023-05-25T19:12:52.629Z,36.70
2023-05-25T19:15:19.695Z,37.10
2023-05-25T19:17:47.291Z,37.10
2023-05-25T19:20:14.704Z,37.10
2023-05-25T19:22:43.786Z,37.00
2023-05-25T20:43:08.385Z,36.70
2023-05-25T20:45:35.606Z,36.90
2023-05-25T20:48:04.195Z,37.00
2023-05-25T20:50:31.666Z,37.10
2023-05-25T20:53:01.425Z,36.90
2023-05-25T20:55:28.798Z,36.60
2023-05-25T20:57:57.846Z,36.50
2023-05-25T21:00:27.867Z,36.50
2023-05-25T21:02:55.114Z,36.30
2023-05-25T21:05:22.432Z,36.30
2023-05-25T21:07:49.488Z,36.20
2023-05-25T21:10:16.835Z,36.10
2023-05-25T21:12:44.017Z,36.30
2023-05-25T21:15:11.348Z,36.10
2023-05-25T21:17:38.697Z,35.70
2023-05-25T21:20:06.316Z,35.80
2023-05-25T21:22:37.430Z,35.80
2023-05-25T21:25:11.372Z,35.60
2023-05-25T21:27:38.448Z,35.60
2023-05-25T21:30:09.208Z,35.50
2023-05-25T21:32:36.259Z,35.40
2023-05-25T21:35:03.527Z,35.30
2023-05-25T21:37:36.140Z,35.30
2023-05-25T21:40:03.511Z,35.30
2023-05-25T21:42:30.540Z,35.60
2023-05-25T21:44:57.701Z,35.80
2023-05-25T21:47:24.796Z,35.90
2023-05-25T21:49:52.146Z,36.00
2023-05-25T21:52:19.858Z,36.10
2023-05-25T21:54:46.890Z,36.20
2023-05-25T21:57:13.932Z,36.10
2023-05-25T21:59:41.007Z,35.70
2023-05-25T22:02:08.317Z,35.90
2023-05-25T22:04:35.391Z,36.00
2023-05-25T22:07:02.451Z,36.10
2023-05-25T22:09:29.976Z,36.30
2023-05-25T22:11:57.013Z,36.30
2023-05-25T22:14:24.135Z,36.20
2023-05-25T22:16:51.337Z,36.30
2023-05-25T22:19:24.470Z,36.30
2023-05-25T22:21:53.494Z,36.30
2023-05-25T22:24:21.332Z,36.20
2023-05-25T22:26:48.478Z,36.00
2023-05-25T22:29:15.699Z,35.90
2023-05-25T22:31:42.810Z,35.80
2023-05-25T22:34:10.043Z,35.90
2023-05-25T22:36:37.979Z,36.00
2023-05-25T22:39:05.035Z,36.00
2023-05-25T22:41:32.128Z,36.00
2023-05-25T22:43:59.258Z,36.00
2023-05-25T22:46:26.321Z,35.90
2023-05-25T22:48:53.549Z,35.90
2023-05-25T22:51:20.698Z,35.90
2023-05-25T22:53:47.767Z,35.80
2023-05-25T22:56:14.905Z,35.80
2023-05-25T22:58:42.031Z,35.90
2023-05-25T23:01:09.112Z,35.90
2023-05-25T23:03:36.402Z,36.00
2023-05-25T23:06:03.680Z,35.90
2023-05-25T23:08:30.843Z,36.00
2023-05-25T23:10:57.929Z,36.00
2023-05-25T23:13:24.954Z,35.90
2023-05-25T23:15:51.988Z,35.90
2023-05-25T23:18:19.051Z,35.70
2023-05-25T23:20:46.338Z,35.50
2023-05-25T23:23:13.627Z,35.40
2023-05-25T23:25:40.665Z,35.40
2023-05-25T23:28:07.808Z,35.40
2023-05-25T23:30:34.839Z,35.30
2023-05-25T23:33:01.912Z,35.30
2023-05-25T23:35:29.296Z,35.40
2023-05-25T23:37:57.707Z,35.30
2023-05-25T23:40:24.927Z,35.40
2023-05-25T23:42:52.606Z,35.40
2023-05-25T23:45:20.045Z,35.30
2023-05-25T23:47:47.185Z,35.30
2023-05-25T23:50:14.640Z,35.30
2023-05-25T23:52:42.029Z,35.20
2023-05-25T23:55:09.242Z,35.30
2023-05-25T23:57:36.778Z,35.30
